createdAt,value
2023-03-02T00:01:55.300Z,27.50
2023-03-02T00:04:29.080Z,25.07
2023-03-02T00:06:58.322Z,26.93
2023-03-02T00:09:25.326Z,24.70
2023-03-02T00:11:52.240Z,28.03
2023-03-02T00:14:18.963Z,29.60
2023-03-02T00:16:45.748Z,26.27
2023-03-02T00:19:12.517Z,28.77
2023-03-02T00:21:39.309Z,28.33
2023-03-02T00:24:06.517Z,25.53
2023-03-02T00:26:34.663Z,28.63
2023-03-02T00:29:01.667Z,26.87
2023-03-02T00:31:28.453Z,25.50
2023-03-02T00:33:55.313Z,24.07
2023-03-02T00:36:23.469Z,27.37
2023-03-02T00:38:54.158Z,28.13
2023-03-02T00:41:21.647Z,28.10
2023-03-02T00:43:49.111Z,25.00
2023-03-02T00:46:19.499Z,27.53
2023-03-02T00:48:47.160Z,29.77
2023-03-02T00:51:14.905Z,25.30
2023-03-02T00:53:42.373Z,23.03
2023-03-02T00:56:10.125Z,27.83
2023-03-02T00:58:37.567Z,24.40
2023-03-02T01:01:11.316Z,24.90
2023-03-02T01:03:38.185Z,25.20
2023-03-02T01:06:06.505Z,25.00
2023-03-02T01:08:33.245Z,26.37
2023-03-02T01:11:01.442Z,25.13
2023-03-02T01:13:28.852Z,26.93
2023-03-02T01:16:02.987Z,25.70
2023-03-02T01:18:29.916Z,29.67
2023-03-02T01:21:05.335Z,28.33
2023-03-02T01:23:32.319Z,25.83
2023-03-02T01:25:59.112Z,28.27
2023-03-02T01:28:25.904Z,24.80
2023-03-02T01:30:52.595Z,27.73
2023-03-02T01:33:19.343Z,30.33
2023-03-02T01:35:49.978Z,27.33
2023-03-02T01:38:16.825Z,29.03
2023-03-02T01:40:43.636Z,27.23
2023-03-02T01:43:15.580Z,24.73
2023-03-02T01:45:55.394Z,25.37
2023-03-02T01:48:39.538Z,27.17
2023-03-02T01:51:07.905Z,25.20
2023-03-02T01:53:36.279Z,21.37
2023-03-02T01:56:03.937Z,25.23
2023-03-02T01:58:34.552Z,25.97
2023-03-02T02:01:01.578Z,25.53
2023-03-02T02:03:31.159Z,27.27
2023-03-02T02:06:18.353Z,25.17
2023-03-02T02:08:46.807Z,22.73
2023-03-02T02:11:13.693Z,27.20
2023-03-02T02:13:40.813Z,27.40
2023-03-02T02:16:08.349Z,26.13
2023-03-02T02:18:40.957Z,24.33
2023-03-02T02:21:09.160Z,24.70
2023-03-02T02:23:38.604Z,24.37
2023-03-02T02:26:18.267Z,23.77
2023-03-02T02:28:57.606Z,27.63
2023-03-02T02:31:30.956Z,25.73
2023-03-02T02:34:03.889Z,24.00
2023-03-02T02:36:35.084Z,26.77
2023-03-02T02:39:05.646Z,24.83
2023-03-02T02:41:38.687Z,23.57
2023-03-02T02:44:07.803Z,22.33
2023-03-02T02:46:34.999Z,25.47
2023-03-02T02:49:04.110Z,27.33
2023-03-02T02:51:31.003Z,29.27
2023-03-02T02:54:02.617Z,23.47
2023-03-02T02:56:36.028Z,26.37
2023-03-02T02:59:07.908Z,25.47
2023-03-02T03:01:34.961Z,24.17
2023-03-02T03:04:04.453Z,27.07
2023-03-02T03:06:43.591Z,25.70
2023-03-02T03:09:11.718Z,23.67
2023-03-02T03:11:42.469Z,23.80
2023-03-02T03:14:19.801Z,22.80
2023-03-02T03:16:48.509Z,25.87
2023-03-02T03:19:23.839Z,22.47
2023-03-02T03:21:53.116Z,26.23
2023-03-02T03:24:20.956Z,22.23
2023-03-02T03:26:48.127Z,26.97
2023-03-02T03:29:16.781Z,25.50
2023-03-02T03:31:44.157Z,24.80
2023-03-02T03:34:11.095Z,31.00
2023-03-02T03:36:38.084Z,33.30
2023-03-02T03:39:06.117Z,24.03
2023-03-02T03:41:33.212Z,27.50
2023-03-02T03:44:00.159Z,26.03
2023-03-02T03:46:27.802Z,23.97
2023-03-02T03:48:54.665Z,26.30
2023-03-02T03:51:21.967Z,28.07
2023-03-02T03:54:00.298Z,23.13
2023-03-02T03:56:33.559Z,22.73
2023-03-02T03:59:07.461Z,24.93
2023-03-02T04:01:40.970Z,22.10
2023-03-02T04:04:14.147Z,28.83
2023-03-02T04:06:41.092Z,23.37
2023-03-02T04:09:08.254Z,27.00
2023-03-02T04:11:40.518Z,26.53
2023-03-02T04:14:08.564Z,25.43
2023-03-02T04:16:36.474Z,27.67
2023-03-02T04:19:09.509Z,25.63
2023-03-02T04:21:42.423Z,27.67
2023-03-02T04:24:09.995Z,25.57
2023-03-02T04:26:39.367Z,26.83
2023-03-02T04:29:06.601Z,25.83
2023-03-02T04:31:33.293Z,23.93
2023-03-02T04:34:00.563Z,25.23
2023-03-02T04:36:27.595Z,25.37
2023-03-02T04:38:54.509Z,26.50
2023-03-02T04:41:21.964Z,28.27
2023-03-02T04:43:48.772Z,24.07
2023-03-02T04:46:19.510Z,27.73
2023-03-02T04:48:46.221Z,27.00
2023-03-02T04:51:29.337Z,26.67
2023-03-02T04:54:00.634Z,24.83
2023-03-02T04:56:27.934Z,23.73
2023-03-02T04:58:55.317Z,25.33
2023-03-02T05:01:22.114Z,25.03
2023-03-02T05:03:49.859Z,26.33
2023-03-02T05:06:17.239Z,25.83
2023-03-02T05:08:44.913Z,21.67
2023-03-02T05:11:21.918Z,27.23
2023-03-02T05:13:53.919Z,28.93
2023-03-02T05:16:21.657Z,28.73
2023-03-02T05:18:48.730Z,25.80
2023-03-02T05:21:16.938Z,24.67
2023-03-02T05:23:44.210Z,24.27
2023-03-02T05:26:11.367Z,27.23
2023-03-02T05:28:38.753Z,25.77
2023-03-02T05:31:06.159Z,27.57
2023-03-02T05:33:33.488Z,27.77
2023-03-02T05:36:00.439Z,28.47
2023-03-02T05:38:31.648Z,26.43
2023-03-02T05:40:58.406Z,25.27
2023-03-02T05:43:25.127Z,25.63
2023-03-02T05:45:51.978Z,24.77
2023-03-02T05:48:18.711Z,28.63
2023-03-02T05:50:45.560Z,21.73
2023-03-02T05:53:12.378Z,27.17
2023-03-02T05:55:39.134Z,23.83
2023-03-02T05:58:14.413Z,25.97
2023-03-02T06:00:41.736Z,28.00
2023-03-02T06:03:08.597Z,25.30
2023-03-02T06:05:35.558Z,28.13
2023-03-02T06:08:02.425Z,25.53
2023-03-02T06:10:29.524Z,26.63
2023-03-02T06:12:56.596Z,25.90
2023-03-02T06:15:23.352Z,27.53
2023-03-02T06:17:50.233Z,29.30
2023-03-02T06:20:18.206Z,29.83
2023-03-02T06:22:46.652Z,30.97
2023-03-02T06:25:17.196Z,33.63
2023-03-02T06:27:44.674Z,25.90
2023-03-02T06:30:14.925Z,29.87
2023-03-02T06:32:42.463Z,25.10
2023-03-02T06:35:09.811Z,25.70
2023-03-02T06:37:36.722Z,25.67
2023-03-02T06:40:11.014Z,28.67
2023-03-02T06:42:39.247Z,28.27
2023-03-02T06:45:07.810Z,23.77
2023-03-02T06:47:34.888Z,23.83
2023-03-02T06:50:01.831Z,23.37
2023-03-02T06:52:28.533Z,19.30
2023-03-02T06:54:55.604Z,27.43
2023-03-02T06:57:22.405Z,22.37
2023-03-02T06:59:49.219Z,21.23
2023-03-02T07:02:15.964Z,22.27
2023-03-02T07:04:42.780Z,20.93
2023-03-02T07:07:09.472Z,22.17
2023-03-02T07:09:36.191Z,19.87
2023-03-02T07:12:03.069Z,21.57
2023-03-02T07:14:29.834Z,18.80
2023-03-02T07:17:00.145Z,20.13
2023-03-02T07:19:27.009Z,21.83
2023-03-02T07:21:53.752Z,18.13
2023-03-02T07:24:20.575Z,16.30
2023-03-02T07:26:47.383Z,19.87
2023-03-02T07:29:14.097Z,18.47
2023-03-02T07:31:43.558Z,16.23
2023-03-02T07:34:10.442Z,19.83
2023-03-02T07:36:37.147Z,17.30
2023-03-02T07:39:04.452Z,19.33
2023-03-02T07:41:31.651Z,19.70
2023-03-02T07:43:58.605Z,16.63
2023-03-02T07:46:25.370Z,19.50
2023-03-02T07:48:52.183Z,15.23
2023-03-02T07:51:18.992Z,15.83
2023-03-02T07:53:45.798Z,18.17
2023-03-02T07:56:14.480Z,16.30
2023-03-02T07:58:41.283Z,18.43
2023-03-02T08:01:08.810Z,15.70
2023-03-02T08:03:36.174Z,19.13
2023-03-02T08:06:08.294Z,15.10
2023-03-02T08:08:36.028Z,16.80
2023-03-02T08:11:11.243Z,12.90
2023-03-02T08:13:38.449Z,14.90
2023-03-02T08:16:08.136Z,13.37
2023-03-02T08:18:35.809Z,14.80
2023-03-02T08:21:02.873Z,14.20
2023-03-02T08:23:29.873Z,13.67
2023-03-02T08:25:56.719Z,13.10
2023-03-02T08:28:23.735Z,14.20
2023-03-02T08:30:57.615Z,11.77
2023-03-02T08:33:25.765Z,17.57
2023-03-02T08:36:01.402Z,14.97
2023-03-02T08:38:29.662Z,14.63
2023-03-02T08:40:56.620Z,11.60
2023-03-02T08:43:25.182Z,11.47
2023-03-02T08:45:53.426Z,15.20
2023-03-02T08:48:21.696Z,15.83
2023-03-02T08:50:55.656Z,13.17
2023-03-02T08:53:22.856Z,12.10
2023-03-02T08:55:49.705Z,14.40
2023-03-02T08:58:16.636Z,14.03
2023-03-02T09:00:43.677Z,14.30
2023-03-02T09:03:10.915Z,11.70
2023-03-02T09:05:37.783Z,10.70
2023-03-02T09:08:06.312Z,10.90
2023-03-02T09:10:33.631Z,11.07
2023-03-02T09:13:00.710Z,13.33
2023-03-02T09:15:27.657Z,11.90
2023-03-02T09:17:54.450Z,13.57
2023-03-02T09:20:21.643Z,10.60
2023-03-02T09:22:50.794Z,12.83
2023-03-02T09:25:18.625Z,12.70
2023-03-02T09:27:46.796Z,16.87
2023-03-02T09:30:14.472Z,16.63
2023-03-02T09:32:41.791Z,14.80
2023-03-02T09:35:08.812Z,14.37
2023-03-02T09:37:38.641Z,12.40
2023-03-02T09:40:12.794Z,11.73
2023-03-02T09:42:45.371Z,12.20
2023-03-02T09:45:49.962Z,19.03
2023-03-02T09:48:28.529Z,14.77
2023-03-02T09:51:13.353Z,11.00
2023-03-02T09:53:57.241Z,10.63
2023-03-02T09:56:24.561Z,15.17
2023-03-02T09:59:40.553Z,12.90
2023-03-02T10:02:25.490Z,14.67
2023-03-02T10:04:58.567Z,11.73
2023-03-02T10:07:38.189Z,14.90
2023-03-02T10:10:24.979Z,9.20
2023-03-02T10:13:03.466Z,12.53
2023-03-02T10:15:42.249Z,13.57
2023-03-02T10:18:25.018Z,12.00
2023-03-02T10:21:05.354Z,11.70
2023-03-02T10:23:38.236Z,10.40
2023-03-02T10:26:26.514Z,16.00
2023-03-02T10:29:14.836Z,11.67
2023-03-02T10:31:43.282Z,9.43
2023-03-02T10:34:11.889Z,9.70
2023-03-02T10:36:41.528Z,10.30
2023-03-02T10:39:17.040Z,11.93
2023-03-02T10:42:00.704Z,10.43
2023-03-02T10:44:37.687Z,11.43
2023-03-02T10:47:07.413Z,11.90
2023-03-02T10:49:35.034Z,12.20
2023-03-02T10:52:16.801Z,13.57
2023-03-02T10:54:43.758Z,12.67
2023-03-02T10:57:28.438Z,13.13
2023-03-02T11:00:04.629Z,13.67
2023-03-02T11:02:34.622Z,14.13
2023-03-02T11:05:27.411Z,11.97
2023-03-02T11:08:06.254Z,13.70
2023-03-02T11:10:38.815Z,11.60
2023-03-02T11:13:20.856Z,10.03
2023-03-02T11:15:50.572Z,11.07
2023-03-02T11:18:29.616Z,11.53
2023-03-02T11:21:06.579Z,10.93
2023-03-02T11:23:39.666Z,10.53
2023-03-02T11:26:12.590Z,14.37
2023-03-02T11:29:04.645Z,13.00
2023-03-02T11:32:01.593Z,12.97
2023-03-02T11:34:34.600Z,11.10
2023-03-02T11:37:15.929Z,13.00
2023-03-02T11:39:54.626Z,8.83
2023-03-02T11:42:36.515Z,11.87
2023-03-02T11:45:17.481Z,14.53
2023-03-02T11:48:23.311Z,10.17
2023-03-02T11:51:05.748Z,10.50
2023-03-02T11:53:46.378Z,9.27
2023-03-02T11:56:13.169Z,15.20
2023-03-02T11:58:42.267Z,12.53
2023-03-02T12:01:22.294Z,11.63
2023-03-02T12:03:49.162Z,12.13
2023-03-02T12:06:21.790Z,11.20
2023-03-02T12:08:51.807Z,11.87
2023-03-02T12:11:18.574Z,11.03
2023-03-02T12:13:49.207Z,13.13
2023-03-02T12:16:35.051Z,12.43
2023-03-02T12:19:28.734Z,8.50
2023-03-02T12:22:10.478Z,9.93
2023-03-02T12:24:39.510Z,11.37
2023-03-02T12:27:15.337Z,9.80
2023-03-02T12:30:23.405Z,9.80
2023-03-02T12:33:20.448Z,8.90
2023-03-02T12:35:50.170Z,10.33
2023-03-02T12:38:32.469Z,11.87
2023-03-02T12:41:38.918Z,10.80
2023-03-02T12:44:33.749Z,9.23
2023-03-02T12:47:03.016Z,9.77
2023-03-02T12:49:53.393Z,7.30
2023-03-02T12:52:31.890Z,10.90
2023-03-02T12:55:18.819Z,11.57
2023-03-02T12:57:58.475Z,9.47
2023-03-02T13:00:28.237Z,11.37
2023-03-02T13:02:56.929Z,8.93
2023-03-02T13:05:35.362Z,9.33
2023-03-02T13:08:07.228Z,11.07
2023-03-02T13:10:38.072Z,12.07
2023-03-02T13:13:15.480Z,9.00
2023-03-02T13:16:00.065Z,11.17
2023-03-02T13:18:33.730Z,11.57
2023-03-02T13:21:02.296Z,7.27
2023-03-02T13:23:33.806Z,7.47
2023-03-02T13:26:03.587Z,10.20
2023-03-02T13:28:35.581Z,6.50
2023-03-02T13:31:23.022Z,10.83
2023-03-02T13:33:52.336Z,11.70
2023-03-02T13:36:31.325Z,9.17
2023-03-02T13:39:00.166Z,12.57
2023-03-02T13:41:29.536Z,7.43
2023-03-02T13:43:57.190Z,8.80
2023-03-02T13:46:35.747Z,8.40
2023-03-02T13:49:10.677Z,11.30
2023-03-02T13:51:47.975Z,11.43
2023-03-02T13:54:18.608Z,9.07
2023-03-02T13:56:45.501Z,9.67
2023-03-02T13:59:18.029Z,10.93
2023-03-02T14:01:45.263Z,8.60
2023-03-02T14:04:14.019Z,10.73
2023-03-02T14:06:40.830Z,11.33
2023-03-02T14:09:07.713Z,7.97
2023-03-02T14:11:38.575Z,9.00
2023-03-02T14:14:06.936Z,9.03
2023-03-02T14:16:37.221Z,10.77
2023-03-02T14:19:04.122Z,8.57
2023-03-02T14:21:31.145Z,10.80
2023-03-02T14:23:59.047Z,10.50
2023-03-02T14:26:58.242Z,10.43
2023-03-02T14:29:34.484Z,10.47
2023-03-02T14:32:04.255Z,12.63
2023-03-02T14:34:31.039Z,7.17
2023-03-02T14:37:02.260Z,9.47
2023-03-02T14:39:37.299Z,7.73
2023-03-02T14:42:05.172Z,10.27
2023-03-02T14:44:32.364Z,13.37
2023-03-02T14:46:59.115Z,14.03
2023-03-02T14:49:25.897Z,9.07
2023-03-02T14:52:08.610Z,14.57
2023-03-02T14:54:43.856Z,9.57
2023-03-02T14:57:20.234Z,10.70
2023-03-02T14:59:47.682Z,17.70
2023-03-02T15:02:24.843Z,11.37
2023-03-02T15:04:56.119Z,12.83
2023-03-02T15:07:24.065Z,10.07
2023-03-02T15:09:50.841Z,8.57
2023-03-02T15:12:17.652Z,9.80
2023-03-02T15:14:44.458Z,12.00
2023-03-02T15:17:11.260Z,13.33
2023-03-02T15:19:38.020Z,12.63
2023-03-02T15:22:05.014Z,11.93
2023-03-02T15:24:33.367Z,10.20
2023-03-02T15:27:00.726Z,12.30
2023-03-02T15:29:27.520Z,12.37
2023-03-02T15:31:54.484Z,12.20
2023-03-02T15:34:21.409Z,14.70
2023-03-02T15:36:48.143Z,13.53
2023-03-02T15:39:16.432Z,10.83
2023-03-02T15:41:43.275Z,10.13
2023-03-02T15:44:24.430Z,9.47
2023-03-02T15:46:54.181Z,11.50
2023-03-02T15:49:22.963Z,10.37
2023-03-02T15:51:51.999Z,10.80
2023-03-02T15:54:19.409Z,11.33
2023-03-02T15:56:49.570Z,9.43
2023-03-02T15:59:16.463Z,10.97
2023-03-02T16:01:43.289Z,10.30
2023-03-02T16:04:10.407Z,7.80
2023-03-02T16:06:37.524Z,14.50
2023-03-02T16:09:05.019Z,13.67
2023-03-02T16:11:31.763Z,7.87
2023-03-02T16:13:58.789Z,11.97
2023-03-02T16:16:26.250Z,10.67
2023-03-02T16:18:54.768Z,14.60
2023-03-02T16:21:22.737Z,10.53
2023-03-02T16:23:50.240Z,11.67
2023-03-02T16:26:19.750Z,11.63
2023-03-02T16:28:46.747Z,13.13
2023-03-02T16:31:17.445Z,9.20
2023-03-02T16:33:45.573Z,15.80
2023-03-02T16:36:13.960Z,11.97
2023-03-02T16:38:40.832Z,12.47
2023-03-02T16:41:20.146Z,10.47
2023-03-02T16:43:52.874Z,10.40
2023-03-02T16:46:20.505Z,11.73
2023-03-02T16:48:49.552Z,13.30
2023-03-02T16:51:17.928Z,13.30
2023-03-02T16:53:45.102Z,14.97
2023-03-02T16:56:13.100Z,11.00
2023-03-02T16:58:41.380Z,15.60
2023-03-02T17:01:10.605Z,15.87
2023-03-02T17:03:37.613Z,24.13
2023-03-02T17:06:07.377Z,17.90
2023-03-02T17:08:34.137Z,16.63
2023-03-02T17:11:00.917Z,20.17
2023-03-02T17:13:28.167Z,13.47
2023-03-02T17:15:55.316Z,16.10
2023-03-02T17:18:22.164Z,12.20
2023-03-02T17:20:53.407Z,11.20
2023-03-02T17:23:20.193Z,15.13
2023-03-02T17:25:46.910Z,15.40
2023-03-02T17:28:15.004Z,11.93
2023-03-02T17:30:42.999Z,13.47
2023-03-02T17:33:10.714Z,15.73
2023-03-02T17:35:37.828Z,15.80
2023-03-02T17:38:05.401Z,13.70
2023-03-02T17:40:32.758Z,18.47
2023-03-02T17:42:59.538Z,18.07
2023-03-02T17:45:28.714Z,15.13
2023-03-02T17:47:57.874Z,24.17
2023-03-02T17:50:25.397Z,20.03
2023-03-02T17:52:52.393Z,16.90
2023-03-02T17:55:19.382Z,22.83
2023-03-02T17:57:46.095Z,25.73
2023-03-02T18:00:16.296Z,21.97
2023-03-02T18:02:43.033Z,21.20
2023-03-02T18:05:11.229Z,24.23
2023-03-02T18:07:38.154Z,22.13
2023-03-02T18:10:06.659Z,26.67
2023-03-02T18:12:34.432Z,19.53
2023-03-02T18:15:01.225Z,23.40
2023-03-02T18:17:28.389Z,24.27
2023-03-02T18:19:55.162Z,30.57
2023-03-02T18:22:22.098Z,31.30
2023-03-02T18:24:50.436Z,29.37
2023-03-02T18:27:17.519Z,23.27
2023-03-02T18:29:44.318Z,23.43
2023-03-02T18:32:12.274Z,27.70
2023-03-02T18:34:39.127Z,25.20
2023-03-02T18:37:06.149Z,26.17
2023-03-02T18:39:32.918Z,24.40
2023-03-02T18:42:00.178Z,25.83
2023-03-02T18:44:28.375Z,31.47
2023-03-02T18:46:55.799Z,27.67
2023-03-02T18:49:23.382Z,36.40
2023-03-02T18:51:50.247Z,28.03
2023-03-02T18:54:16.966Z,29.37
2023-03-02T18:56:43.817Z,28.03
2023-03-02T18:59:11.168Z,30.13
2023-03-02T19:01:38.072Z,29.30
2023-03-02T19:04:05.335Z,29.60
2023-03-02T19:06:33.537Z,27.80
2023-03-02T19:09:00.510Z,27.73
2023-03-02T19:11:27.685Z,31.80
2023-03-02T19:13:54.570Z,32.27
2023-03-02T19:16:21.378Z,30.90
2023-03-02T19:18:48.658Z,28.10
2023-03-02T19:21:16.576Z,31.27
2023-03-02T19:23:45.505Z,29.87
2023-03-02T19:26:13.080Z,31.53
2023-03-02T19:28:39.951Z,29.50
2023-03-02T19:31:09.263Z,32.90
2023-03-02T19:33:36.516Z,36.53
2023-03-02T19:36:04.020Z,43.23
2023-03-02T19:38:31.194Z,42.53
2023-03-02T19:40:59.435Z,31.17
2023-03-02T19:43:27.296Z,43.70
2023-03-02T19:45:54.331Z,48.43
2023-03-02T19:48:21.137Z,53.13
2023-03-02T19:50:48.127Z,39.13
2023-03-02T19:53:16.941Z,38.60
2023-03-02T19:55:44.225Z,45.97
2023-03-02T19:58:17.145Z,58.33
2023-03-02T20:00:45.237Z,45.37
2023-03-02T20:03:13.444Z,41.87
2023-03-02T20:05:40.243Z,44.03
2023-03-02T20:08:08.754Z,42.70
2023-03-02T20:10:42.676Z,55.53
2023-03-02T20:13:10.031Z,67.90
2023-03-02T20:15:41.352Z,45.30
2023-03-02T20:18:11.817Z,49.70
2023-03-02T20:20:39.151Z,41.83
2023-03-02T20:23:05.990Z,41.40
2023-03-02T20:25:33.829Z,39.27
2023-03-02T20:28:05.462Z,53.90
2023-03-02T20:30:39.077Z,43.57
2023-03-02T20:33:07.659Z,138.17
2023-03-02T20:35:37.746Z,49.47
2023-03-02T20:38:06.188Z,49.37
2023-03-02T20:40:34.872Z,131.20
2023-03-02T20:43:01.920Z,74.67
2023-03-02T20:45:28.954Z,75.53
2023-03-02T20:47:55.766Z,56.00
2023-03-02T20:50:27.148Z,60.33
2023-03-02T20:52:53.928Z,51.97
2023-03-02T20:55:20.824Z,58.83
2023-03-02T20:57:48.909Z,50.57
2023-03-02T21:00:23.399Z,62.07
2023-03-02T21:02:50.178Z,55.77
2023-03-02T21:05:17.856Z,94.80
2023-03-02T21:07:45.479Z,54.83
2023-03-02T21:10:19.138Z,50.93
2023-03-02T21:12:46.200Z,55.33
2023-03-02T21:15:13.116Z,55.63
2023-03-02T21:17:39.808Z,51.30
2023-03-02T21:20:07.389Z,50.17
2023-03-02T21:22:34.327Z,53.87
2023-03-02T21:25:01.293Z,52.93
2023-03-02T21:27:28.916Z,55.37
2023-03-02T21:29:55.773Z,56.93
2023-03-02T21:32:22.560Z,52.97
2023-03-02T21:34:49.301Z,58.87
2023-03-02T21:37:16.153Z,60.10
2023-03-02T21:39:42.932Z,251.97
2023-03-02T21:42:09.670Z,59.80
2023-03-02T21:44:36.528Z,50.37
2023-03-02T21:47:03.688Z,54.97
2023-03-02T21:49:31.848Z,53.07
2023-03-02T21:51:58.718Z,53.50
2023-03-02T21:54:25.463Z,58.90
2023-03-02T21:56:52.158Z,62.67
2023-03-02T21:59:19.039Z,55.47
2023-03-02T22:01:45.928Z,59.33
2023-03-02T22:04:12.809Z,53.00
2023-03-02T22:06:39.666Z,55.47
2023-03-02T22:09:06.578Z,54.17
2023-03-02T22:11:36.208Z,52.37
2023-03-02T22:14:11.501Z,60.53
2023-03-02T22:16:40.719Z,50.77
2023-03-02T22:19:27.473Z,55.27
2023-03-02T22:21:56.441Z,52.10
2023-03-02T22:24:25.903Z,52.97
2023-03-02T22:27:05.214Z,92.30
2023-03-02T22:29:44.575Z,60.67
2023-03-02T22:32:17.332Z,57.43
2023-03-02T22:34:45.875Z,56.77
2023-03-02T22:37:18.732Z,58.80
2023-03-02T22:39:46.504Z,54.43
2023-03-02T22:42:25.221Z,56.87
2023-03-02T22:45:16.906Z,53.03
2023-03-02T22:47:48.127Z,54.17
2023-03-02T22:50:27.018Z,57.73
2023-03-02T22:52:55.319Z,54.93
2023-03-02T22:55:36.276Z,53.70
2023-03-02T22:58:30.041Z,60.30
2023-03-02T23:00:58.371Z,58.37
2023-03-02T23:03:37.815Z,60.83
2023-03-02T23:06:25.609Z,65.03
2023-03-02T23:08:54.704Z,55.97
2023-03-02T23:11:22.974Z,61.50
2023-03-02T23:13:50.305Z,55.87
2023-03-02T23:16:20.113Z,66.83
2023-03-02T23:18:48.250Z,62.93
2023-03-02T23:21:28.515Z,64.60
2023-03-02T23:23:55.792Z,57.80
2023-03-02T23:26:22.579Z,57.63
2023-03-02T23:28:50.667Z,58.10
2023-03-02T23:31:21.376Z,62.77
2023-03-02T23:33:48.450Z,61.63
2023-03-02T23:36:15.872Z,61.00
2023-03-02T23:38:42.592Z,63.00
2023-03-02T23:41:09.884Z,63.20
2023-03-02T23:43:36.907Z,57.57
2023-03-02T23:46:03.938Z,67.63
2023-03-02T23:48:31.159Z,60.37
2023-03-02T23:50:58.101Z,63.03
2023-03-02T23:53:24.826Z,64.87
2023-03-02T23:55:53.647Z,61.10
2023-03-02T23:58:21.389Z,59.97
